Search for airport 
image banner adimage banner adimage banner ad
image banner ad

O61 - Cameron Park

Located in Cameron Park, United States

ICAO - O61, IATA -

Data provided by Airmate  

General information

Coordinates: N38°41'2" W120°59'15"
Elevation is 1287 feet MSL.
Magnetic variation is 16° East
View others Airports in California

Operational data

Special qualification required
Current time UTC:
Current local time:
Weather at : KPVF - Placerville ( 21 km )
METAR: KPVF 211255Z AUTO 10005KT 10SM CLR 23/00 A2995 RMK AO1
View NOTAMs / SUP AIP / TFR affecting this airport [VIEW]
Communications frequencies: [VIEW]

Runways:

RWY identifierQFULength (ft)Width (ft)SurfaceLDA (ft)
13143°405150ASPH
31323°405150ASPH

Airport contact information

Address: Cameron Park United States

Other aviation service providers

Flight schools

Flightime

Flightime
HIGHFLY4U@gmail.com+1(530)677-6474

Max Aero

Max Aero
fly@max.aero+1(530)350-5052

Satellite view of O61